createdAt,value
2022-12-06T00:03:36.520Z,102129.50
2022-12-06T00:08:34.625Z,102133.09
2022-12-06T00:13:33.977Z,102127.78
2022-12-06T00:18:32.246Z,102119.03
2022-12-06T00:23:31.755Z,102121.63
2022-12-06T00:28:29.960Z,102114.59
2022-12-06T00:33:29.665Z,102115.41
2022-12-06T00:38:27.883Z,102105.00
2022-12-06T00:43:25.988Z,102105.84
2022-12-06T00:48:24.184Z,102095.59
2022-12-06T00:53:24.213Z,102095.59
2022-12-06T00:58:22.893Z,102093.91
2022-12-06T01:03:21.015Z,102085.16
2022-12-06T01:08:19.703Z,102089.38
2022-12-06T01:13:19.049Z,102085.31
2022-12-06T01:18:16.947Z,102087.91
2022-12-06T01:23:15.094Z,102079.13
2022-12-06T01:28:12.990Z,102080.84
2022-12-06T01:33:12.530Z,102080.88
2022-12-06T01:38:11.435Z,102076.56
2022-12-06T01:43:30.225Z,102064.50
2022-12-06T01:48:29.866Z,102064.47
2022-12-06T01:53:28.600Z,102051.53
2022-12-06T01:58:29.489Z,102060.19
2022-12-06T02:03:29.143Z,102066.28
2022-12-06T02:08:29.188Z,102058.41
2022-12-06T02:13:27.331Z,102046.25
2022-12-06T02:18:31.244Z,102057.50
2022-12-06T02:23:47.075Z,102052.25
2022-12-06T02:28:59.942Z,102048.22
2022-12-06T02:34:01.769Z,102048.28
2022-12-06T02:39:04.266Z,102041.78
2022-12-06T02:44:05.120Z,102033.00
2022-12-06T02:49:05.740Z,102035.75
2022-12-06T02:54:06.644Z,102035.84
2022-12-06T02:59:05.908Z,102035.94
2022-12-06T03:04:31.810Z,102037.47
2022-12-06T03:09:37.962Z,102034.97
2022-12-06T03:14:39.384Z,102033.22
2022-12-06T03:19:38.400Z,102030.63
2022-12-06T03:24:40.674Z,102021.88
2022-12-06T03:29:42.002Z,102013.88
2022-12-06T03:34:42.201Z,102015.88
2022-12-06T03:39:44.619Z,102011.50
2022-12-06T03:44:42.565Z,102001.38
2022-12-06T03:49:43.191Z,101996.84
2022-12-06T03:54:43.005Z,102006.31
2022-12-06T03:59:41.116Z,102007.28
2022-12-06T04:04:39.230Z,102000.47
2022-12-06T04:10:03.408Z,102002.00
2022-12-06T04:15:03.075Z,102004.59
2022-12-06T04:20:01.267Z,102003.91
2022-12-06T04:24:59.455Z,102011.69
2022-12-06T04:30:14.913Z,102009.19
2022-12-06T04:35:31.868Z,101987.00
2022-12-06T04:40:29.922Z,102000.56
2022-12-06T04:45:27.895Z,102002.91
2022-12-06T04:50:27.334Z,102008.81
2022-12-06T04:55:25.297Z,102007.88
2022-12-06T05:00:23.485Z,102006.13
2022-12-06T05:05:21.688Z,102010.44
2022-12-06T05:10:21.463Z,102007.22
2022-12-06T05:15:19.437Z,101999.41
2022-12-06T05:20:17.379Z,101994.25
2022-12-06T05:25:17.090Z,101994.09
2022-12-06T05:30:16.713Z,101995.06
2022-12-06T05:35:14.635Z,101995.00
2022-12-06T05:40:12.880Z,102000.19
2022-12-06T05:45:11.286Z,101990.81
2022-12-06T05:50:11.243Z,101990.88
2022-12-06T05:55:09.738Z,101974.66
2022-12-06T06:00:08.665Z,101976.44
2022-12-06T06:05:06.901Z,101992.72
2022-12-06T06:10:07.222Z,101999.41
2022-12-06T06:15:07.353Z,101995.84
2022-12-06T06:20:33.989Z,101990.56
2022-12-06T06:26:00.604Z,101988.00
2022-12-06T06:31:03.317Z,101975.75
2022-12-06T06:36:01.432Z,101970.28
2022-12-06T06:41:02.624Z,101975.53
2022-12-06T06:46:02.834Z,101965.84
2022-12-06T06:51:03.418Z,101968.41
2022-12-06T06:56:09.131Z,101961.44
2022-12-06T07:01:09.951Z,101956.97
2022-12-06T07:06:09.824Z,101957.88
2022-12-06T07:11:07.750Z,101955.06
2022-12-06T07:16:06.387Z,101957.47
2022-12-06T07:21:07.129Z,101955.63
2022-12-06T07:26:06.682Z,101966.81
2022-12-06T07:31:15.937Z,101960.78
2022-12-06T07:36:16.349Z,101963.59
2022-12-06T07:41:40.764Z,101964.50
2022-12-06T07:46:48.653Z,101957.94
2022-12-06T07:51:48.092Z,101958.88
2022-12-06T07:56:46.319Z,101965.81
2022-12-06T08:01:44.885Z,101963.16
2022-12-06T08:06:43.123Z,101953.28
2022-12-06T08:11:42.588Z,101939.78
2022-12-06T08:16:40.934Z,101945.25
2022-12-06T08:21:38.850Z,101952.81
2022-12-06T08:26:36.757Z,101941.78
2022-12-06T08:31:36.339Z,101939.88
2022-12-06T08:36:34.570Z,101936.44
2022-12-06T08:41:50.017Z,101936.66
2022-12-06T08:46:49.680Z,101937.81
2022-12-06T08:51:48.378Z,101938.31
2022-12-06T08:56:46.302Z,101931.69
2022-12-06T09:01:44.903Z,101912.38
2022-12-06T09:06:45.385Z,101900.69
2022-12-06T09:11:44.058Z,101893.06
2022-12-06T09:16:42.647Z,101889.53
2022-12-06T09:21:43.057Z,101876.31
2022-12-06T09:26:42.544Z,101876.50
2022-12-06T09:31:41.236Z,101872.13
2022-12-06T09:36:40.833Z,101865.63
2022-12-06T09:41:56.503Z,101861.78
2022-12-06T09:47:00.479Z,101842.53
2022-12-06T09:52:11.355Z,101827.81
2022-12-06T09:57:14.050Z,101821.84
2022-12-06T10:02:26.026Z,101817.63
2022-12-06T10:07:27.190Z,101811.31
2022-12-06T10:12:30.692Z,101804.50
2022-12-06T10:17:36.542Z,101807.91
2022-12-06T10:22:41.478Z,101801.69
2022-12-06T10:27:41.571Z,101799.03
2022-12-06T10:32:54.296Z,101787.75
2022-12-06T10:37:59.565Z,101778.09
2022-12-06T10:43:02.109Z,101778.00
2022-12-06T10:48:03.751Z,101776.13
2022-12-06T10:53:05.521Z,101777.81
2022-12-06T10:58:11.507Z,101762.00
2022-12-06T11:03:15.537Z,101751.09
2022-12-06T11:08:16.172Z,101743.50
2022-12-06T11:13:18.140Z,101737.97
2022-12-06T11:18:18.468Z,101745.88
2022-12-06T11:23:21.979Z,101732.25
2022-12-06T11:28:27.693Z,101715.66
2022-12-06T11:33:30.915Z,101695.34
2022-12-06T11:38:28.924Z,101699.91
2022-12-06T11:43:28.387Z,101696.59
2022-12-06T11:48:28.301Z,101693.56
2022-12-06T11:53:28.673Z,101684.91
2022-12-06T11:58:28.229Z,101678.75
2022-12-06T12:03:30.857Z,101643.34
2022-12-06T12:08:32.818Z,101660.31
2022-12-06T12:13:45.342Z,101665.09
2022-12-06T12:18:44.477Z,101670.69
2022-12-06T12:23:46.150Z,101673.22
2022-12-06T12:28:44.743Z,101678.25
2022-12-06T12:33:42.661Z,101659.31
2022-12-06T12:38:43.278Z,101662.31
2022-12-06T12:43:47.151Z,101641.03
2022-12-06T12:48:46.063Z,101634.88
2022-12-06T12:53:46.658Z,101618.63
2022-12-06T12:58:48.167Z,101620.00
2022-12-06T13:03:51.461Z,101626.91
2022-12-06T13:08:49.961Z,101616.34
2022-12-06T13:13:54.768Z,101610.09
2022-12-06T13:18:53.953Z,101613.56
2022-12-06T13:23:54.147Z,101617.63
2022-12-06T13:28:56.092Z,101615.78
2022-12-06T13:33:58.133Z,101606.84
2022-12-06T13:38:56.497Z,101613.38
2022-12-06T13:43:56.753Z,101622.25
2022-12-06T13:48:55.261Z,101621.75
2022-12-06T13:54:19.012Z,101619.91
2022-12-06T13:59:38.972Z,101624.28
2022-12-06T14:04:46.908Z,101619.94
2022-12-06T14:09:46.759Z,101611.94
2022-12-06T14:14:56.733Z,101612.25
2022-12-06T14:19:55.343Z,101613.81
2022-12-06T14:24:57.575Z,101614.09
2022-12-06T14:30:07.202Z,101619.88
2022-12-06T14:35:06.862Z,101604.03
2022-12-06T14:40:44.582Z,101596.09
2022-12-06T14:45:45.486Z,101612.75
2022-12-06T14:50:44.857Z,101609.28
2022-12-06T14:55:54.537Z,101593.53
2022-12-06T15:00:55.940Z,101598.03
2022-12-06T15:06:09.561Z,101604.84
2022-12-06T15:11:44.006Z,101594.63
2022-12-06T15:16:49.787Z,101604.44
2022-12-06T15:21:51.212Z,101586.19
2022-12-06T15:26:49.035Z,101587.84
2022-12-06T15:31:50.699Z,101591.31
2022-12-06T15:36:48.613Z,101593.00
2022-12-06T15:41:47.198Z,101584.25
2022-12-06T15:46:46.151Z,101592.91
2022-12-06T15:51:45.970Z,101591.38
2022-12-06T15:56:44.172Z,101591.47
2022-12-06T16:01:45.913Z,101569.16
2022-12-06T16:06:46.753Z,101559.59
2022-12-06T16:11:44.968Z,101563.88
2022-12-06T16:16:43.921Z,101571.19
2022-12-06T16:21:54.805Z,101575.41
2022-12-06T16:26:52.901Z,101581.50
2022-12-06T16:31:54.904Z,101588.47
2022-12-06T16:37:06.922Z,101585.00
2022-12-06T16:42:12.547Z,101568.81
2022-12-06T16:52:19.469Z,101551.94
2022-12-06T16:57:19.561Z,101551.94
2022-12-06T17:02:27.127Z,101565.84
2022-12-06T17:07:45.351Z,101569.41
2022-12-06T17:12:43.595Z,101559.09
2022-12-06T17:17:41.569Z,101555.78
2022-12-06T17:22:41.893Z,101562.03
2022-12-06T17:27:40.211Z,101551.16
2022-12-06T17:32:38.181Z,101547.09
2022-12-06T17:37:36.216Z,101542.59
2022-12-06T17:42:53.291Z,101527.69
2022-12-06T17:47:51.396Z,101517.75
2022-12-06T17:52:49.619Z,101512.09
2022-12-06T17:57:49.079Z,101514.66
2022-12-06T18:02:48.993Z,101512.84
2022-12-06T18:07:47.138Z,101505.75
2022-12-06T18:12:45.466Z,101516.31
2022-12-06T18:17:44.770Z,101519.84
2022-12-06T18:22:42.627Z,101519.84
2022-12-06T18:27:40.657Z,101526.09
2022-12-06T18:32:38.650Z,101528.66
2022-12-06T18:37:38.382Z,101514.94
2022-12-06T18:42:37.358Z,101479.00
2022-12-06T18:47:35.427Z,101489.63
2022-12-06T18:52:33.351Z,101493.16
2022-12-06T18:57:37.026Z,101491.31
2022-12-06T19:02:35.773Z,101469.53
2022-12-06T19:07:36.181Z,101474.81
2022-12-06T19:12:36.116Z,101473.47
2022-12-06T19:17:34.164Z,101474.44
2022-12-06T19:22:32.545Z,101477.03
2022-12-06T19:27:30.620Z,101478.84
2022-12-06T19:32:29.911Z,101473.78
2022-12-06T19:37:27.886Z,101470.31
2022-12-06T19:42:43.348Z,101474.75
2022-12-06T19:47:42.806Z,101452.25
2022-12-06T19:52:40.881Z,101447.91
2022-12-06T19:57:39.966Z,101447.91
2022-12-06T20:02:38.110Z,101447.06
2022-12-06T20:07:37.777Z,101448.91
2022-12-06T20:12:37.887Z,101440.31
2022-12-06T20:17:36.254Z,101432.56
2022-12-06T20:22:38.134Z,101421.22
2022-12-06T20:27:58.738Z,101406.44
2022-12-06T20:32:59.366Z,101415.13
2022-12-06T20:37:57.419Z,101421.47
2022-12-06T20:43:02.667Z,101424.22
2022-12-06T20:48:01.101Z,101413.03
2022-12-06T20:52:59.289Z,101407.19
2022-12-06T20:57:58.793Z,101405.25
2022-12-06T21:02:56.781Z,101400.97
2022-12-06T21:07:55.013Z,101405.34
2022-12-06T21:12:53.049Z,101399.19
2022-12-06T21:17:52.337Z,101403.59
2022-12-06T21:22:51.425Z,101401.91
2022-12-06T21:27:49.439Z,101409.06
2022-12-06T21:32:48.053Z,101404.06
2022-12-06T21:37:47.903Z,101401.19
2022-12-06T21:42:45.757Z,101405.66
2022-12-06T21:47:44.278Z,101403.91
2022-12-06T21:52:42.102Z,101405.78
2022-12-06T21:57:41.512Z,101401.66
2022-12-06T22:02:39.681Z,101397.06
2022-12-06T22:07:38.017Z,101403.19
2022-12-06T22:12:36.846Z,101429.53
2022-12-06T22:17:36.306Z,101428.28
2022-12-06T22:22:35.233Z,101429.28
2022-12-06T22:27:34.408Z,101419.78
2022-12-06T22:32:36.809Z,101409.25
2022-12-06T22:37:36.190Z,101398.72
2022-12-06T22:42:34.178Z,101401.53
2022-12-06T22:47:34.769Z,101396.41
2022-12-06T22:52:32.737Z,101395.03
2022-12-06T22:57:32.039Z,101385.22
2022-12-06T23:02:30.105Z,101372.59
2022-12-06T23:07:28.102Z,101366.16
2022-12-06T23:12:26.054Z,101363.09
2022-12-06T23:17:25.294Z,101360.50
2022-12-06T23:22:23.228Z,101360.13
2022-12-06T23:27:21.375Z,101367.00
2022-12-06T23:32:19.778Z,101368.44
2022-12-06T23:37:20.186Z,101367.63
2022-12-06T23:42:18.096Z,101369.56
2022-12-06T23:47:16.224Z,101380.59
2022-12-06T23:52:15.019Z,101382.50
2022-12-06T23:57:15.125Z,101372.16
